CYLA

Aupaluk Airport

Aupaluk, Quebec, Canada
METAR CYLA 162200Z 13014KT 15SM SCT028 OVC100 M07/M09 A2954 RMK SC3AS5 SNW CVR/MUCH LOOSE LAST STFD OBS/NEXT 171300Z SLP008
Observed Flight Rules
Dec-16 @ 22:00 UTC (18 minutes ago) Visual Flight Rules
Wind Visibility Clouds
130° at 14 knots 15 miles
  • Scattered at 2,800' AGL
  • Overcast at 10,000' AGL
Temperatures Readings
Current -7°C / 19°F
Dewpoint -9°C / 16°F
Humidity 86%
Altimeter 29.54" Hg
Pressure 1000.8 hPa
Elevation 35
METAR CYLA 162200Z 13014KT 15SM SCT028 OVC100 M07/M09 A2954 RMK SC3AS5 SNW CVR/MUCH LOOSE LAST STFD OBS/NEXT 171300Z SLP008
Observed Flight Rules
Dec-16 @ 22:00 UTC
(18 minutes ago)
VFR
Wind Visibility
130° at 14 knots 15 miles
Clouds
  • Scattered at 2,800' AGL
  • Overcast at 10,000' AGL
Temperature Dewpoint
-7°C / 19°F -9°C / 16°F
Humidity Altimeter Pressure
86% 29.54" Hg 1000.8 hPa